Terminal Aerodrome Forecast
Issued by NWS Tuscon, AZ

Home | Current Version | Previous Version | Text Only | Print | Product List | Glossary On
Versions: 1 2 3 4 5 6 7 8 9 10 11 12 13 14 15 16 17 18 19 20 21
000
FTUS45 KTWC 070004 AAB
TAFTUS
TAF AMD
KTUS 070004Z 0700/0724 30010G16KT P6SM VCSH SCT100 SCT200
     FM070200 26007KT P6SM SCT090 BKN150
     FM070800 15005KT P6SM FEW090 SCT150
     FM072000 27007KT P6SM SCT100=

USA.gov is the U.S. government's official web portal to all federal, state and local government web resources and services.